createdAt,value
2022-11-12T00:00:42.312Z,6.5
2022-11-12T00:06:20.421Z,6.4
2022-11-12T00:11:58.559Z,6.3
2022-11-12T00:17:35.251Z,6.2
2022-11-12T00:23:13.794Z,6.1
2022-11-12T00:28:54.836Z,5.9
2022-11-12T00:34:32.572Z,5.8
2022-11-12T00:40:13.181Z,5.7
2022-11-12T00:45:50.846Z,5.6
2022-11-12T00:50:57.484Z,5.6
2022-11-12T00:56:35.768Z,5.6
2022-11-12T01:01:58.530Z,5.6
2022-11-12T01:07:40.648Z,5.6
2022-11-12T01:13:18.453Z,5.6
2022-11-12T01:18:28.954Z,5.7
2022-11-12T01:24:07.339Z,5.6
2022-11-12T01:29:45.478Z,5.7
2022-11-12T01:35:23.075Z,5.8
2022-11-12T01:40:46.783Z,5.8
2022-11-12T01:46:09.897Z,5.8
2022-11-12T01:51:53.936Z,5.8
2022-11-12T01:57:34.935Z,5.8
2022-11-12T02:03:13.957Z,5.8
2022-11-12T02:08:51.558Z,5.8
2022-11-12T02:14:29.728Z,5.9
2022-11-12T02:19:52.771Z,5.9
2022-11-12T02:25:29.809Z,5.9
2022-11-12T02:30:51.354Z,5.9
2022-11-12T02:36:29.464Z,6
2022-11-12T02:41:52.322Z,6
2022-11-12T02:47:29.636Z,6.1
2022-11-12T02:53:07.986Z,6
2022-11-12T02:58:30.730Z,6.1
2022-11-12T03:03:37.750Z,6.1
2022-11-12T03:09:22.136Z,6.1
2022-11-12T03:14:44.458Z,6.1
2022-11-12T03:20:21.456Z,6.1
2022-11-12T03:25:44.463Z,6.1
2022-11-12T03:31:23.779Z,6.1
2022-11-12T03:37:00.295Z,6.1
2022-11-12T03:42:37.379Z,6
2022-11-12T03:47:44.320Z,5.9
2022-11-12T03:53:06.130Z,5.7
2022-11-12T03:58:28.455Z,5.6
2022-11-12T04:03:35.243Z,5.4
2022-11-12T04:08:42.193Z,5.3
2022-11-12T04:14:04.821Z,5.1
2022-11-12T04:19:11.578Z,5
2022-11-12T04:24:18.184Z,4.8
2022-11-12T04:29:24.171Z,4.7
2022-11-12T04:34:47.029Z,4.6
2022-11-12T04:39:59.003Z,4.4
2022-11-12T04:45:21.317Z,4.3
2022-11-12T04:50:44.205Z,4.2
2022-11-12T04:56:06.412Z,4.2
2022-11-12T05:01:28.634Z,4.2
2022-11-12T05:07:06.456Z,4.3
2022-11-12T05:12:45.150Z,4.3
2022-11-12T05:18:23.019Z,4.4
2022-11-12T05:24:57.601Z,4.6
2022-11-12T05:30:37.399Z,4.6
2022-11-12T05:36:17.584Z,4.7
2022-11-12T05:42:22.663Z,4.8
2022-11-12T05:48:00.276Z,5.1
2022-11-12T05:54:07.127Z,5.8
2022-11-12T05:59:52.962Z,6.3
2022-11-12T06:05:15.763Z,6.4
2022-11-12T06:10:38.123Z,6.6
2022-11-12T06:16:00.676Z,6.8
2022-11-12T06:21:22.709Z,8.3
2022-11-12T06:26:51.811Z,13.8
2022-11-12T06:32:14.840Z,20.3
2022-11-12T06:37:43.248Z,25.7
2022-11-12T06:43:04.438Z,29.3
2022-11-12T06:48:11.373Z,32.4
2022-11-12T06:53:50.592Z,32.4
2022-11-12T06:59:12.630Z,32.6
2022-11-12T07:04:54.649Z,35
2022-11-12T07:10:36.315Z,34.5
2022-11-12T07:16:04.635Z,33.6
2022-11-12T07:21:32.403Z,31.9
2022-11-12T07:26:58.387Z,30.4
2022-11-12T07:33:02.481Z,29.3
2022-11-12T07:38:28.040Z,28.6
2022-11-12T07:44:06.721Z,27.9
2022-11-12T07:49:52.163Z,27
2022-11-12T07:55:30.417Z,26.1
2022-11-12T08:01:14.718Z,24.9
2022-11-12T08:07:01.810Z,23.9
2022-11-12T08:12:41.104Z,22.9
2022-11-12T08:18:23.355Z,22.1
2022-11-12T08:23:46.190Z,21.6
2022-11-12T08:29:25.509Z,21.4
2022-11-12T08:34:51.227Z,21.7
2022-11-12T08:40:30.442Z,22.1
2022-11-12T08:46:10.266Z,21.9
2022-11-12T08:51:49.657Z,21.4
2022-11-12T08:57:28.173Z,21
2022-11-12T09:03:07.102Z,20.9
2022-11-12T09:19:59.418Z,21
2022-11-12T09:25:37.822Z,20.6
2022-11-12T09:31:16.933Z,20.2
2022-11-12T09:36:56.666Z,19.7
2022-11-12T09:42:36.071Z,19.3
2022-11-12T09:48:45.996Z,18.6
2022-11-12T09:54:24.587Z,18.2
2022-11-12T10:00:02.203Z,17.9
2022-11-12T10:05:40.916Z,18.1
2022-11-12T10:11:24.516Z,19.1
2022-11-12T10:17:09.183Z,20
2022-11-12T10:22:47.776Z,19.8
2022-11-12T10:28:26.300Z,19.3
2022-11-12T10:34:04.608Z,18.8
2022-11-12T10:39:42.593Z,18.4
2022-11-12T10:45:25.550Z,17.9
2022-11-12T10:51:04.125Z,17.5
2022-11-12T10:56:42.641Z,17.1
2022-11-12T11:02:26.447Z,16.9
2022-11-12T11:08:04.882Z,16.5
2022-11-12T11:13:28.606Z,16.3
2022-11-12T11:18:51.726Z,16.1
2022-11-12T11:24:18.521Z,16.1
2022-11-12T11:29:56.848Z,15.9
2022-11-12T11:35:35.121Z,15.7
2022-11-12T11:41:13.249Z,15.5
2022-11-12T11:46:51.824Z,15.3
2022-11-12T11:52:54.825Z,14.9
2022-11-12T11:58:33.199Z,14.6
2022-11-12T12:04:11.538Z,14.4
2022-11-12T12:09:49.750Z,14.2
2022-11-12T12:15:57.240Z,13.9
2022-11-12T12:21:36.634Z,13.8
2022-11-12T12:27:14.929Z,13.8
2022-11-12T12:32:57.589Z,13.8
2022-11-12T12:38:36.303Z,13.9
2022-11-12T12:44:19.938Z,13.9
2022-11-12T12:49:42.845Z,13.9
2022-11-12T12:55:22.019Z,13.9
2022-11-12T13:00:49.634Z,13.9
2022-11-12T13:06:28.582Z,13.9
2022-11-12T13:11:52.147Z,13.8
2022-11-12T13:17:30.723Z,13.4
2022-11-12T13:23:09.381Z,13.3
2022-11-12T13:28:39.350Z,13.1
2022-11-12T13:34:23.830Z,12.8
2022-11-12T13:39:51.036Z,12.6
2022-11-12T13:45:30.143Z,12.4
2022-11-12T13:51:14.574Z,12.2
2022-11-12T13:56:37.471Z,12.1
2022-11-12T14:02:04.304Z,12
2022-11-12T14:07:47.477Z,11.9
2022-11-12T14:13:25.508Z,11.8
2022-11-12T14:19:07.708Z,11.7
2022-11-12T14:24:53.025Z,11.6
2022-11-12T14:30:34.000Z,11.5
2022-11-12T14:36:12.023Z,11.4
2022-11-12T14:41:53.845Z,11.3
2022-11-12T14:47:54.133Z,11
2022-11-12T14:53:40.976Z,10.9
2022-11-12T14:59:26.211Z,10.7
2022-11-12T15:06:07.856Z,10.4
2022-11-12T15:11:37.783Z,10.3
2022-11-12T15:17:00.322Z,10.1
2022-11-12T15:22:44.745Z,9.9
2022-11-12T15:28:23.726Z,9.6
2022-11-12T15:33:46.555Z,9.4
2022-11-12T15:39:24.974Z,9.2
2022-11-12T15:44:47.976Z,9
2022-11-12T15:49:45.956Z,8.9
2022-11-12T15:55:31.193Z,8.7
2022-11-12T16:01:08.944Z,8.6
2022-11-12T16:06:31.529Z,8.4
2022-11-12T16:11:54.457Z,8.4
2022-11-12T16:17:17.873Z,8.3
2022-11-12T16:22:55.772Z,8.2
2022-11-12T16:28:19.399Z,8.2
2022-11-12T16:33:58.346Z,8.1
2022-11-12T16:39:36.358Z,8.1
2022-11-12T16:45:14.737Z,8.1
2022-11-12T16:50:53.028Z,8
2022-11-12T16:56:33.846Z,8
2022-11-12T17:02:12.356Z,8
2022-11-12T17:07:41.106Z,8
2022-11-12T17:13:07.187Z,7.9
2022-11-12T17:18:29.900Z,7.9
2022-11-12T17:23:59.129Z,7.9
2022-11-12T17:29:25.062Z,7.9
2022-11-12T17:34:47.851Z,7.9
2022-11-12T17:40:11.666Z,7.9
2022-11-12T17:45:33.712Z,7.9
2022-11-12T17:50:56.156Z,7.9
2022-11-12T17:56:03.468Z,7.9
2022-11-12T18:01:27.050Z,7.9
2022-11-12T18:06:50.366Z,7.9
2022-11-12T18:12:18.804Z,7.9
2022-11-12T18:17:26.990Z,7.8
2022-11-12T18:22:50.324Z,7.8
2022-11-12T18:28:12.767Z,7.8
2022-11-12T18:33:35.486Z,7.8
2022-11-12T18:38:58.237Z,7.8
2022-11-12T18:44:24.859Z,7.8
2022-11-12T18:49:32.244Z,7.8
2022-11-12T18:54:42.771Z,7.8
2022-11-12T19:00:05.854Z,7.8
2022-11-12T19:05:35.703Z,7.8
2022-11-12T19:10:48.390Z,7.8
2022-11-12T19:16:00.760Z,7.8
2022-11-12T19:21:27.577Z,7.8
2022-11-12T19:27:05.944Z,7.8
2022-11-12T19:32:28.354Z,7.8
2022-11-12T19:38:05.427Z,7.8
2022-11-12T19:43:19.281Z,7.8
2022-11-12T19:48:42.393Z,7.8
2022-11-12T19:53:52.283Z,7.7
2022-11-12T19:59:21.302Z,7.7
2022-11-12T20:04:59.990Z,7.7
2022-11-12T20:10:22.776Z,7.7
2022-11-12T20:16:01.142Z,7.8
2022-11-12T20:21:46.641Z,7.7
2022-11-12T20:27:26.402Z,7.7
2022-11-12T20:33:04.389Z,7.7
2022-11-12T20:38:10.933Z,7.7
2022-11-12T20:43:18.665Z,7.7
2022-11-12T20:48:26.676Z,7.8
2022-11-12T20:54:18.375Z,7.7
2022-11-12T20:59:57.500Z,7.7
2022-11-12T21:05:24.747Z,7.8
2022-11-12T21:11:05.854Z,7.8
2022-11-12T21:16:19.354Z,7.8
2022-11-12T21:21:58.184Z,7.8
2022-11-12T21:27:37.000Z,7.7
2022-11-12T21:33:02.806Z,7.8
2022-11-12T21:38:41.776Z,7.8
2022-11-12T21:44:04.556Z,7.8
2022-11-12T21:49:46.032Z,7.8
2022-11-12T21:55:24.053Z,7.8
2022-11-12T22:01:31.425Z,7.8
2022-11-12T22:06:54.671Z,7.9
2022-11-12T22:12:17.428Z,7.9
2022-11-12T22:18:17.065Z,7.9
2022-11-12T22:23:41.936Z,7.9
2022-11-12T22:29:07.260Z,7.9
2022-11-12T22:34:49.294Z,7.9
2022-11-12T22:40:30.270Z,7.9
2022-11-12T22:46:07.909Z,7.9
2022-11-12T22:51:46.287Z,7.9
2022-11-12T22:57:23.967Z,7.9
2022-11-12T23:03:04.124Z,7.9
2022-11-12T23:08:43.226Z,8
2022-11-12T23:13:54.242Z,8
2022-11-12T23:19:16.681Z,8
2022-11-12T23:24:44.151Z,8.1
2022-11-12T23:30:22.253Z,8
2022-11-12T23:35:59.965Z,8.1
2022-11-12T23:41:43.036Z,8.1
2022-11-12T23:47:20.730Z,8.1
2022-11-12T23:52:59.008Z,8.1
2022-11-12T23:57:50.081Z,8.1
